sensor_id;sensor_type;location;lat;lon;timestamp;pressure;altitude;pressure_sealevel;temperature;humidity
74230;BME280;62589;12.568;99.958;2023-02-04T00:02:00;100817.03;;;32.25;54.83
74230;BME280;62589;12.568;99.958;2023-02-04T00:04:26;100818.63;;;32.26;54.90
74230;BME280;62589;12.568;99.958;2023-02-04T00:06:53;100827.75;;;32.26;54.51
74230;BME280;62589;12.568;99.958;2023-02-04T00:09:19;100824.97;;;32.26;54.56
74230;BME280;62589;12.568;99.958;2023-02-04T00:11:45;100821.81;;;32.28;54.70
74230;BME280;62589;12.568;99.958;2023-02-04T00:14:12;100831.75;;;32.29;54.69
74230;BME280;62589;12.568;99.958;2023-02-04T00:16:38;100833.75;;;32.28;54.46
74230;BME280;62589;12.568;99.958;2023-02-04T00:19:04;100834.53;;;32.29;54.42
74230;BME280;62589;12.568;99.958;2023-02-04T00:21:31;100841.69;;;32.30;54.30
74230;BME280;62589;12.568;99.958;2023-02-04T00:23:57;100843.28;;;32.31;54.33
74230;BME280;62589;12.568;99.958;2023-02-04T00:26:24;100839.34;;;32.32;54.27
74230;BME280;62589;12.568;99.958;2023-02-04T00:28:50;100836.97;;;32.34;54.53
74230;BME280;62589;12.568;99.958;2023-02-04T00:31:16;100837.78;;;32.34;54.52
74230;BME280;62589;12.568;99.958;2023-02-04T00:33:43;100850.50;;;32.35;54.46
74230;BME280;62589;12.568;99.958;2023-02-04T00:36:09;100848.53;;;32.39;54.32
74230;BME280;62589;12.568;99.958;2023-02-04T00:38:36;100855.69;;;32.40;54.47
74230;BME280;62589;12.568;99.958;2023-02-04T00:41:02;100848.16;;;32.44;54.47
74230;BME280;62589;12.568;99.958;2023-02-04T00:43:28;100854.94;;;32.47;54.67
74230;BME280;62589;12.568;99.958;2023-02-04T00:45:55;100860.97;;;32.53;54.97
74230;BME280;62589;12.568;99.958;2023-02-04T00:48:21;100863.41;;;32.58;54.48
74230;BME280;62589;12.568;99.958;2023-02-04T00:50:47;100863.44;;;32.65;54.42
74230;BME280;62589;12.568;99.958;2023-02-04T00:53:14;100866.28;;;32.72;54.47
74230;BME280;62589;12.568;99.958;2023-02-04T00:55:40;100873.13;;;32.78;54.17
74230;BME280;62589;12.568;99.958;2023-02-04T00:58:06;100868.41;;;32.86;54.16
74230;BME280;62589;12.568;99.958;2023-02-04T01:00:33;100874.03;;;32.93;53.94
74230;BME280;62589;12.568;99.958;2023-02-04T01:02:59;100879.25;;;33.01;53.98
74230;BME280;62589;12.568;99.958;2023-02-04T01:05:25;100870.16;;;33.08;53.54
74230;BME280;62589;12.568;99.958;2023-02-04T01:07:52;100882.94;;;33.16;53.80
74230;BME280;62589;12.568;99.958;2023-02-04T01:10:18;100884.19;;;33.26;53.17
74230;BME280;62589;12.568;99.958;2023-02-04T01:12:44;100895.78;;;33.35;53.46
74230;BME280;62589;12.568;99.958;2023-02-04T01:15:11;100889.47;;;33.41;53.27
74230;BME280;62589;12.568;99.958;2023-02-04T01:17:37;100898.63;;;33.49;53.02
74230;BME280;62589;12.568;99.958;2023-02-04T01:20:04;100903.06;;;33.57;52.72
74230;BME280;62589;12.568;99.958;2023-02-04T01:22:30;100905.50;;;33.66;52.47
74230;BME280;62589;12.568;99.958;2023-02-04T01:24:57;100912.28;;;33.72;52.46
74230;BME280;62589;12.568;99.958;2023-02-04T01:27:23;100913.16;;;33.79;52.02
74230;BME280;62589;12.568;99.958;2023-02-04T01:29:49;100912.78;;;33.88;52.25
74230;BME280;62589;12.568;99.958;2023-02-04T01:32:16;100918.41;;;33.99;52.60
74230;BME280;62589;12.568;99.958;2023-02-04T01:34:42;100925.97;;;34.09;52.37
74230;BME280;62589;12.568;99.958;2023-02-04T01:37:09;100925.22;;;34.16;52.69
74230;BME280;62589;12.568;99.958;2023-02-04T01:39:35;100928.03;;;34.26;52.10
74230;BME280;62589;12.568;99.958;2023-02-04T01:42:02;100932.44;;;34.27;51.96
74230;BME280;62589;12.568;99.958;2023-02-04T01:44:29;100936.44;;;34.37;50.39
74230;BME280;62589;12.568;99.958;2023-02-04T01:46:56;100937.66;;;34.39;50.46
74230;BME280;62589;12.568;99.958;2023-02-04T01:49:22;100940.06;;;34.48;50.12
74230;BME280;62589;12.568;99.958;2023-02-04T01:51:49;100944.44;;;34.56;50.19
74230;BME280;62589;12.568;99.958;2023-02-04T01:54:16;100947.25;;;34.63;50.09
74230;BME280;62589;12.568;99.958;2023-02-04T01:56:45;100944.47;;;34.74;49.02
74230;BME280;62589;12.568;99.958;2023-02-04T01:59:14;100950.47;;;34.79;48.81
74230;BME280;62589;12.568;99.958;2023-02-04T02:01:44;100951.69;;;34.89;49.22
74230;BME280;62589;12.568;99.958;2023-02-04T02:04:14;100953.25;;;34.97;48.40
74230;BME280;62589;12.568;99.958;2023-02-04T02:06:55;100956.06;;;35.11;48.55
74230;BME280;62589;12.568;99.958;2023-02-04T02:09:24;100964.00;;;35.20;47.91
74230;BME280;62589;12.568;99.958;2023-02-04T02:11:52;100959.66;;;35.30;47.61
74230;BME280;62589;12.568;99.958;2023-02-04T02:14:19;100962.81;;;35.39;47.95
74230;BME280;62589;12.568;99.958;2023-02-04T02:16:46;100964.81;;;35.53;47.39
74230;BME280;62589;12.568;99.958;2023-02-04T02:19:16;100959.97;;;35.60;47.22
74230;BME280;62589;12.568;99.958;2023-02-04T02:21:52;100964.31;;;35.75;46.72
74230;BME280;62589;12.568;99.958;2023-02-04T02:24:32;100974.69;;;35.89;46.82
74230;BME280;62589;12.568;99.958;2023-02-04T02:27:05;100972.28;;;35.95;46.57
74230;BME280;62589;12.568;99.958;2023-02-04T02:29:33;100972.63;;;36.04;45.48
74230;BME280;62589;12.568;99.958;2023-02-04T02:32:00;100975.78;;;36.13;45.52
74230;BME280;62589;12.568;99.958;2023-02-04T02:34:27;100980.56;;;36.16;45.73
74230;BME280;62589;12.568;99.958;2023-02-04T02:36:56;100982.16;;;36.24;45.04
74230;BME280;62589;12.568;99.958;2023-02-04T02:39:23;100972.94;;;36.31;44.94
74230;BME280;62589;12.568;99.958;2023-02-04T02:41:50;100976.09;;;36.36;45.07
74230;BME280;62589;12.568;99.958;2023-02-04T02:44:17;100971.63;;;36.46;44.99
74230;BME280;62589;12.568;99.958;2023-02-04T02:46:44;100977.59;;;36.55;45.08
74230;BME280;62589;12.568;99.958;2023-02-04T02:49:16;100971.53;;;36.60;44.92
74230;BME280;62589;12.568;99.958;2023-02-04T02:51:43;100967.09;;;36.70;45.09
74230;BME280;62589;12.568;99.958;2023-02-04T02:54:26;100973.03;;;36.79;44.68
74230;BME280;62589;12.568;99.958;2023-02-04T02:56:53;100981.84;;;36.77;44.67
74230;BME280;62589;12.568;99.958;2023-02-04T02:59:21;100980.59;;;36.82;44.58
74230;BME280;62589;12.568;99.958;2023-02-04T03:01:54;100979.09;;;36.74;43.95
74230;BME280;62589;12.568;99.958;2023-02-04T03:04:27;100975.41;;;36.84;43.86
74230;BME280;62589;12.568;99.958;2023-02-04T03:06:55;100975.47;;;36.77;43.15
74230;BME280;62589;12.568;99.958;2023-02-04T03:09:23;100976.97;;;36.89;43.15
74230;BME280;62589;12.568;99.958;2023-02-04T03:11:51;100973.75;;;36.90;42.58
74230;BME280;62589;12.568;99.958;2023-02-04T03:14:17;100977.81;;;36.82;42.78
74230;BME280;62589;12.568;99.958;2023-02-04T03:16:45;100973.03;;;36.79;42.10
74230;BME280;62589;12.568;99.958;2023-02-04T03:19:12;100973.03;;;36.79;42.73
74230;BME280;62589;12.568;99.958;2023-02-04T03:21:42;100972.25;;;36.78;42.42
74230;BME280;62589;12.568;99.958;2023-02-04T03:24:09;100969.06;;;36.76;42.35
74230;BME280;62589;12.568;99.958;2023-02-04T03:26:35;100974.59;;;36.83;42.80
74230;BME280;62589;12.568;99.958;2023-02-04T03:29:04;100974.63;;;36.80;42.31
74230;BME280;62589;12.568;99.958;2023-02-04T03:31:31;100969.78;;;36.84;42.69
74230;BME280;62589;12.568;99.958;2023-02-04T03:33:57;100958.56;;;36.91;42.62
74230;BME280;62589;12.568;99.958;2023-02-04T03:36:24;100964.16;;;36.91;43.10
74230;BME280;62589;12.568;99.958;2023-02-04T03:38:50;100957.34;;;36.92;43.49
74230;BME280;62589;12.568;99.958;2023-02-04T03:41:18;100961.75;;;36.93;43.55
74230;BME280;62589;12.568;99.958;2023-02-04T03:43:45;100960.88;;;37.00;43.81
74230;BME280;62589;12.568;99.958;2023-02-04T03:46:11;100958.88;;;37.00;43.74
74230;BME280;62589;12.568;99.958;2023-02-04T03:48:38;100948.72;;;36.69;43.44
74230;BME280;62589;12.568;99.958;2023-02-04T03:51:04;100957.94;;;36.62;43.02
74230;BME280;62589;12.568;99.958;2023-02-04T03:53:30;100951.13;;;36.67;43.39
74230;BME280;62589;12.568;99.958;2023-02-04T03:55:57;100950.31;;;36.66;43.69
74230;BME280;62589;12.568;99.958;2023-02-04T03:58:23;100952.69;;;36.71;43.63
74230;BME280;62589;12.568;99.958;2023-02-04T04:00:50;100945.78;;;36.87;43.80
74230;BME280;62589;12.568;99.958;2023-02-04T04:03:16;100948.91;;;36.99;43.35
74230;BME280;62589;12.568;99.958;2023-02-04T04:05:42;100954.56;;;36.92;42.55
74230;BME280;62589;12.568;99.958;2023-02-04T04:08:09;100944.06;;;37.00;42.91
74230;BME280;62589;12.568;99.958;2023-02-04T04:10:35;100946.16;;;36.92;42.71
74230;BME280;62589;12.568;99.958;2023-02-04T04:13:01;100938.47;;;37.00;42.74
74230;BME280;62589;12.568;99.958;2023-02-04T04:15:28;100942.53;;;36.95;43.19
74230;BME280;62589;12.568;99.958;2023-02-04T04:17:55;100943.50;;;36.78;43.26
74230;BME280;62589;12.568;99.958;2023-02-04T04:20:21;100941.94;;;36.66;43.66
74230;BME280;62589;12.568;99.958;2023-02-04T04:22:52;100942.72;;;36.67;43.67
74230;BME280;62589;12.568;99.958;2023-02-04T04:25:19;100941.69;;;36.46;44.03
74230;BME280;62589;12.568;99.958;2023-02-04T04:27:45;100936.06;;;36.50;44.11
74230;BME280;62589;12.568;99.958;2023-02-04T04:30:12;100927.31;;;36.44;44.29
74230;BME280;62589;12.568;99.958;2023-02-04T04:32:38;100934.06;;;36.51;44.68
74230;BME280;62589;12.568;99.958;2023-02-04T04:35:04;100924.50;;;36.44;44.20
74230;BME280;62589;12.568;99.958;2023-02-04T04:37:31;100923.69;;;36.47;44.44
74230;BME280;62589;12.568;99.958;2023-02-04T04:39:59;100927.69;;;36.46;44.14
74230;BME280;62589;12.568;99.958;2023-02-04T04:42:27;100928.19;;;36.34;44.21
74230;BME280;62589;12.568;99.958;2023-02-04T04:44:53;100922.25;;;36.25;44.49
74230;BME280;62589;12.568;99.958;2023-02-04T04:47:20;100911.06;;;36.18;44.88
74230;BME280;62589;12.568;99.958;2023-02-04T04:49:46;100914.25;;;36.20;44.69
74230;BME280;62589;12.568;99.958;2023-02-04T04:52:12;100912.66;;;36.19;45.00
74230;BME280;62589;12.568;99.958;2023-02-04T04:54:39;100904.66;;;36.17;45.20
74230;BME280;62589;12.568;99.958;2023-02-04T04:57:05;100902.72;;;36.14;45.26
74230;BME280;62589;12.568;99.958;2023-02-04T04:59:31;100897.94;;;36.11;45.74
74230;BME280;62589;12.568;99.958;2023-02-04T05:01:58;100896.38;;;36.07;46.27
74230;BME280;62589;12.568;99.958;2023-02-04T05:04:24;100893.22;;;35.98;45.65
74230;BME280;62589;12.568;99.958;2023-02-04T05:06:50;100892.38;;;36.04;45.38
74230;BME280;62589;12.568;99.958;2023-02-04T05:09:17;100890.47;;;35.94;45.89
74230;BME280;62589;12.568;99.958;2023-02-04T05:11:43;100889.25;;;35.95;45.60
74230;BME280;62589;12.568;99.958;2023-02-04T05:14:09;100877.63;;;36.00;45.87
74230;BME280;62589;12.568;99.958;2023-02-04T05:16:36;100875.31;;;35.92;45.63
74230;BME280;62589;12.568;99.958;2023-02-04T05:19:02;100869.31;;;35.90;46.55
74230;BME280;62589;12.568;99.958;2023-02-04T05:21:28;100872.50;;;35.88;45.95
74230;BME280;62589;12.568;99.958;2023-02-04T05:23:54;100864.09;;;35.95;45.93
74230;BME280;62589;12.568;99.958;2023-02-04T05:26:21;100864.94;;;35.89;45.89
74230;BME280;62589;12.568;99.958;2023-02-04T05:28:47;100856.97;;;35.84;45.72
74230;BME280;62589;12.568;99.958;2023-02-04T05:31:18;100862.59;;;35.69;46.03
74230;BME280;62589;12.568;99.958;2023-02-04T05:33:45;100855.78;;;35.77;46.43
74230;BME280;62589;12.568;99.958;2023-02-04T05:36:11;100854.28;;;35.55;46.57
74230;BME280;62589;12.568;99.958;2023-02-04T05:38:38;100849.56;;;35.38;48.34
74230;BME280;62589;12.568;99.958;2023-02-04T05:41:04;100847.00;;;35.75;47.08
74230;BME280;62589;12.568;99.958;2023-02-04T05:43:30;100845.44;;;35.74;46.73
74230;BME280;62589;12.568;99.958;2023-02-04T05:45:57;100842.16;;;35.94;46.84
74230;BME280;62589;12.568;99.958;2023-02-04T05:48:23;100841.28;;;36.04;46.74
74230;BME280;62589;12.568;99.958;2023-02-04T05:50:49;100836.06;;;36.09;46.10
74230;BME280;62589;12.568;99.958;2023-02-04T05:53:16;100835.28;;;36.09;46.47
74230;BME280;62589;12.568;99.958;2023-02-04T05:55:42;100830.19;;;35.93;46.35
74230;BME280;62589;12.568;99.958;2023-02-04T05:58:08;100836.91;;;36.03;45.12
74230;BME280;62589;12.568;99.958;2023-02-04T06:00:35;100823.72;;;36.03;44.89
74230;BME280;62589;12.568;99.958;2023-02-04T06:03:01;100826.41;;;36.17;45.16
74230;BME280;62589;12.568;99.958;2023-02-04T06:05:28;100814.03;;;36.19;45.00
74230;BME280;62589;12.568;99.958;2023-02-04T06:07:54;100813.66;;;36.17;44.68
74230;BME280;62589;12.568;99.958;2023-02-04T06:10:20;100815.13;;;35.66;46.47
74230;BME280;62589;12.568;99.958;2023-02-04T06:12:47;100809.88;;;35.86;45.70
74230;BME280;62589;12.568;99.958;2023-02-04T06:15:13;100803.84;;;35.94;46.00
74230;BME280;62589;12.568;99.958;2023-02-04T06:17:40;100801.06;;;35.87;46.18
74230;BME280;62589;12.568;99.958;2023-02-04T06:20:06;100789.41;;;35.99;46.12
74230;BME280;62589;12.568;99.958;2023-02-04T06:22:33;100797.44;;;35.94;45.73
74230;BME280;62589;12.568;99.958;2023-02-04T06:24:59;100786.75;;;35.81;46.51
74230;BME280;62589;12.568;99.958;2023-02-04T06:27:26;100778.31;;;35.89;46.74
74230;BME280;62589;12.568;99.958;2023-02-04T06:29:54;100771.56;;;35.83;45.81
74230;BME280;62589;12.568;99.958;2023-02-04T06:32:22;100770.75;;;35.86;46.38
74230;BME280;62589;12.568;99.958;2023-02-04T06:34:49;100765.56;;;35.88;46.55
74230;BME280;62589;12.568;99.958;2023-02-04T06:37:15;100763.56;;;35.88;46.07
74230;BME280;62589;12.568;99.958;2023-02-04T06:39:42;100761.25;;;35.72;46.04
74230;BME280;62589;12.568;99.958;2023-02-04T06:42:09;100746.06;;;35.73;46.34
74230;BME280;62589;12.568;99.958;2023-02-04T06:44:36;100732.41;;;35.90;46.33
74230;BME280;62589;12.568;99.958;2023-02-04T06:47:02;100731.53;;;35.96;46.40
74230;BME280;62589;12.568;99.958;2023-02-04T06:49:28;100731.13;;;36.01;46.25
74230;BME280;62589;12.568;99.958;2023-02-04T06:51:55;100720.72;;;36.02;46.61
74230;BME280;62589;12.568;99.958;2023-02-04T06:54:21;100715.13;;;36.02;46.07
74230;BME280;62589;12.568;99.958;2023-02-04T06:56:47;100711.53;;;36.05;46.12
74230;BME280;62589;12.568;99.958;2023-02-04T06:59:14;100711.63;;;35.94;46.62
74230;BME280;62589;12.568;99.958;2023-02-04T07:01:40;100706.00;;;35.98;46.18
74230;BME280;62589;12.568;99.958;2023-02-04T07:04:07;100704.41;;;35.97;45.87
74230;BME280;62589;12.568;99.958;2023-02-04T07:06:33;100701.69;;;35.90;45.65
74230;BME280;62589;12.568;99.958;2023-02-04T07:08:59;100692.47;;;35.93;45.84
74230;BME280;62589;12.568;99.958;2023-02-04T07:11:25;100686.53;;;35.87;46.30
74230;BME280;62589;12.568;99.958;2023-02-04T07:13:52;100680.16;;;35.83;46.20
74230;BME280;62589;12.568;99.958;2023-02-04T07:16:18;100679.25;;;35.97;46.50
74230;BME280;62589;12.568;99.958;2023-02-04T07:18:44;100676.16;;;35.88;46.21
74230;BME280;62589;12.568;99.958;2023-02-04T07:21:11;100662.19;;;35.88;46.00
74230;BME280;62589;12.568;99.958;2023-02-04T07:23:37;100667.44;;;35.78;46.06
74230;BME280;62589;12.568;99.958;2023-02-04T07:26:03;100663.81;;;35.81;46.53
74230;BME280;62589;12.568;99.958;2023-02-04T07:28:30;100655.00;;;35.87;46.99
74230;BME280;62589;12.568;99.958;2023-02-04T07:30:56;100664.56;;;35.89;46.51
74230;BME280;62589;12.568;99.958;2023-02-04T07:33:23;100653.16;;;35.62;47.91
74230;BME280;62589;12.568;99.958;2023-02-04T07:35:49;100649.56;;;35.65;47.87
74230;BME280;62589;12.568;99.958;2023-02-04T07:38:15;100649.56;;;35.65;48.03
74230;BME280;62589;12.568;99.958;2023-02-04T07:40:41;100639.19;;;35.66;48.96
74230;BME280;62589;12.568;99.958;2023-02-04T07:43:08;100642.16;;;35.37;49.18
74230;BME280;62589;12.568;99.958;2023-02-04T07:45:34;100630.59;;;35.39;48.58
74230;BME280;62589;12.568;99.958;2023-02-04T07:48:00;100628.09;;;35.55;48.86
74230;BME280;62589;12.568;99.958;2023-02-04T07:50:27;100630.31;;;35.19;50.41
74230;BME280;62589;12.568;99.958;2023-02-04T07:52:53;100623.09;;;35.29;50.54
74230;BME280;62589;12.568;99.958;2023-02-04T07:55:19;100623.53;;;35.20;51.39
74230;BME280;62589;12.568;99.958;2023-02-04T07:57:46;100619.91;;;35.27;51.50
74230;BME280;62589;12.568;99.958;2023-02-04T08:00:13;100627.09;;;35.21;51.76
74230;BME280;62589;12.568;99.958;2023-02-04T08:02:40;100620.84;;;35.02;52.07
74230;BME280;62589;12.568;99.958;2023-02-04T08:05:08;100622.06;;;34.98;51.65
74230;BME280;62589;12.568;99.958;2023-02-04T08:07:34;100622.03;;;35.05;51.67
74230;BME280;62589;12.568;99.958;2023-02-04T08:10:02;100618.47;;;34.97;52.20
74230;BME280;62589;12.568;99.958;2023-02-04T08:12:28;100616.44;;;35.05;51.17
74230;BME280;62589;12.568;99.958;2023-02-04T08:14:55;100609.25;;;35.07;51.92
74230;BME280;62589;12.568;99.958;2023-02-04T08:17:21;100608.97;;;34.84;51.19
74230;BME280;62589;12.568;99.958;2023-02-04T08:19:47;100604.38;;;35.19;51.13
74230;BME280;62589;12.568;99.958;2023-02-04T08:22:14;100605.25;;;35.12;51.44
74230;BME280;62589;12.568;99.958;2023-02-04T08:24:40;100608.00;;;35.15;50.91
74230;BME280;62589;12.568;99.958;2023-02-04T08:27:07;100604.34;;;35.26;50.45
74230;BME280;62589;12.568;99.958;2023-02-04T08:29:33;100604.78;;;35.28;51.08
74230;BME280;62589;12.568;99.958;2023-02-04T08:32:00;100601.56;;;35.22;49.75
74230;BME280;62589;12.568;99.958;2023-02-04T08:34:26;100598.50;;;35.06;50.36
74230;BME280;62589;12.568;99.958;2023-02-04T08:36:52;100598.91;;;35.04;50.47
74230;BME280;62589;12.568;99.958;2023-02-04T08:39:19;100603.72;;;34.97;50.11
74230;BME280;62589;12.568;99.958;2023-02-04T08:41:45;100600.09;;;35.03;49.30
74230;BME280;62589;12.568;99.958;2023-02-04T08:44:12;100598.22;;;34.86;50.20
74230;BME280;62589;12.568;99.958;2023-02-04T08:46:39;100598.63;;;34.85;50.59
74230;BME280;62589;12.568;99.958;2023-02-04T08:49:05;100596.53;;;34.99;50.51
74230;BME280;62589;12.568;99.958;2023-02-04T08:51:31;100598.63;;;34.81;50.92
74230;BME280;62589;12.568;99.958;2023-02-04T08:53:58;100608.63;;;34.64;50.62
74230;BME280;62589;12.568;99.958;2023-02-04T08:56:24;100603.84;;;34.68;51.69
74230;BME280;62589;12.568;99.958;2023-02-04T08:58:50;100599.47;;;34.71;50.44
74230;BME280;62589;12.568;99.958;2023-02-04T09:01:18;100599.88;;;34.62;50.49
74230;BME280;62589;12.568;99.958;2023-02-04T09:03:45;100589.47;;;34.73;50.90
74230;BME280;62589;12.568;99.958;2023-02-04T09:06:12;100592.22;;;34.88;50.96
74230;BME280;62589;12.568;99.958;2023-02-04T09:08:38;100590.63;;;34.87;50.31
74230;BME280;62589;12.568;99.958;2023-02-04T09:11:04;100591.41;;;34.91;49.97
74230;BME280;62589;12.568;99.958;2023-02-04T09:13:31;100596.25;;;34.79;49.96
74230;BME280;62589;12.568;99.958;2023-02-04T09:15:58;100587.94;;;34.55;51.00
74230;BME280;62589;12.568;99.958;2023-02-04T09:18:24;100594.34;;;34.52;51.38
74230;BME280;62589;12.568;99.958;2023-02-04T09:20:51;100582.44;;;34.47;51.51
74230;BME280;62589;12.568;99.958;2023-02-04T09:23:17;100583.94;;;34.66;51.72
74230;BME280;62589;12.568;99.958;2023-02-04T09:25:44;100595.88;;;34.70;51.36
74230;BME280;62589;12.568;99.958;2023-02-04T09:28:12;100591.09;;;34.67;51.23
74230;BME280;62589;12.568;99.958;2023-02-04T09:30:40;100586.66;;;34.73;50.43
74230;BME280;62589;12.568;99.958;2023-02-04T09:33:07;100590.69;;;34.69;51.00
74230;BME280;62589;12.568;99.958;2023-02-04T09:35:34;100587.88;;;34.79;50.93
74230;BME280;62589;12.568;99.958;2023-02-04T09:38:00;100591.84;;;34.86;50.41
74230;BME280;62589;12.568;99.958;2023-02-04T09:40:29;100580.66;;;34.89;49.70
74230;BME280;62589;12.568;99.958;2023-02-04T09:43:00;100588.59;;;34.94;49.95
74230;BME280;62589;12.568;99.958;2023-02-04T09:45:29;100591.84;;;34.82;50.30
74230;BME280;62589;12.568;99.958;2023-02-04T09:47:58;100600.22;;;34.82;50.23
74230;BME280;62589;12.568;99.958;2023-02-04T09:50:27;100592.25;;;34.77;50.30
74230;BME280;62589;12.568;99.958;2023-02-04T09:52:56;100598.22;;;34.72;49.77
74230;BME280;62589;12.568;99.958;2023-02-04T09:55:32;100584.69;;;34.81;49.72
74230;BME280;62589;12.568;99.958;2023-02-04T09:57:58;100598.25;;;34.79;49.48
74230;BME280;62589;12.568;99.958;2023-02-04T10:00:27;100599.00;;;34.76;49.22
74230;BME280;62589;12.568;99.958;2023-02-04T10:02:56;100601.41;;;34.81;49.67
74230;BME280;62589;12.568;99.958;2023-02-04T10:05:28;100601.81;;;34.79;50.08
74230;BME280;62589;12.568;99.958;2023-02-04T10:07:56;100601.41;;;34.77;48.77
74230;BME280;62589;12.568;99.958;2023-02-04T10:10:25;100603.00;;;34.71;48.44
74230;BME280;62589;12.568;99.958;2023-02-04T10:12:55;100601.78;;;34.87;49.00
74230;BME280;62589;12.568;99.958;2023-02-04T10:15:22;100599.41;;;34.85;48.97
74230;BME280;62589;12.568;99.958;2023-02-04T10:17:55;100587.78;;;34.94;49.02
74230;BME280;62589;12.568;99.958;2023-02-04T10:20:24;100612.22;;;34.65;50.29
74230;BME280;62589;12.568;99.958;2023-02-04T10:22:52;100602.66;;;34.69;49.72
74230;BME280;62589;12.568;99.958;2023-02-04T10:25:22;100609.47;;;34.51;49.55
74230;BME280;62589;12.568;99.958;2023-02-04T10:27:50;100609.44;;;34.61;50.04
74230;BME280;62589;12.568;99.958;2023-02-04T10:30:28;100615.81;;;34.62;49.53
74230;BME280;62589;12.568;99.958;2023-02-04T10:32:58;100627.75;;;34.66;49.65
74230;BME280;62589;12.568;99.958;2023-02-04T10:35:25;100618.16;;;34.74;49.54
74230;BME280;62589;12.568;99.958;2023-02-04T10:38:04;100615.75;;;34.76;49.99
74230;BME280;62589;12.568;99.958;2023-02-04T10:40:35;100610.63;;;34.64;50.48
74230;BME280;62589;12.568;99.958;2023-02-04T10:43:14;100612.22;;;34.61;49.78
74230;BME280;62589;12.568;99.958;2023-02-04T10:45:46;100614.16;;;34.75;49.55
74230;BME280;62589;12.568;99.958;2023-02-04T10:48:19;100618.56;;;34.79;48.85
74230;BME280;62589;12.568;99.958;2023-02-04T10:50:46;100620.53;;;34.75;49.27
74230;BME280;62589;12.568;99.958;2023-02-04T10:53:18;100619.75;;;34.71;48.09
74230;BME280;62589;12.568;99.958;2023-02-04T10:55:56;100623.69;;;34.92;48.02
74230;BME280;62589;12.568;99.958;2023-02-04T10:58:26;100636.88;;;34.84;48.62
74230;BME280;62589;12.568;99.958;2023-02-04T11:00:53;100630.91;;;34.78;48.30
74230;BME280;62589;12.568;99.958;2023-02-04T11:03:27;100637.28;;;34.72;48.42
74230;BME280;62589;12.568;99.958;2023-02-04T11:05:57;100633.31;;;34.69;48.61
74230;BME280;62589;12.568;99.958;2023-02-04T11:08:29;100629.34;;;34.63;48.79
74230;BME280;62589;12.568;99.958;2023-02-04T11:11:05;100634.56;;;34.51;49.30
74230;BME280;62589;12.568;99.958;2023-02-04T11:14:00;100634.19;;;34.49;48.70
74230;BME280;62589;12.568;99.958;2023-02-04T11:16:30;100629.03;;;34.36;49.11
74230;BME280;62589;12.568;99.958;2023-02-04T11:19:00;100632.63;;;34.40;49.11
74230;BME280;62589;12.568;99.958;2023-02-04T11:24:23;100627.03;;;34.44;48.72
74230;BME280;62589;12.568;99.958;2023-02-04T11:27:03;100638.19;;;34.40;48.33
74230;BME280;62589;12.568;99.958;2023-02-04T11:29:32;100642.56;;;34.34;48.93
74230;BME280;62589;12.568;99.958;2023-02-04T11:34:50;100644.56;;;34.27;49.07
74230;BME280;62589;12.568;99.958;2023-02-04T11:37:33;100641.38;;;34.32;49.00
74230;BME280;62589;12.568;99.958;2023-02-04T11:40:00;100639.00;;;34.20;49.60
74230;BME280;62589;12.568;99.958;2023-02-04T11:42:40;100643.38;;;34.28;49.29
74230;BME280;62589;12.568;99.958;2023-02-04T11:45:33;100643.38;;;34.21;49.68
74230;BME280;62589;12.568;99.958;2023-02-04T11:48:03;100642.59;;;34.20;49.00
74230;BME280;62589;12.568;99.958;2023-02-04T11:50:35;100646.56;;;34.19;48.39
74230;BME280;62589;12.568;99.958;2023-02-04T11:53:09;100652.94;;;34.16;48.41
74230;BME280;62589;12.568;99.958;2023-02-04T11:55:43;100661.31;;;34.05;48.34
74230;BME280;62589;12.568;99.958;2023-02-04T11:58:19;100670.84;;;34.11;48.25
74230;BME280;62589;12.568;99.958;2023-02-04T12:00:46;100673.22;;;34.13;47.92
74230;BME280;62589;12.568;99.958;2023-02-04T12:03:31;100670.06;;;34.18;47.85
74230;BME280;62589;12.568;99.958;2023-02-04T12:05:59;100680.41;;;34.18;48.16
74230;BME280;62589;12.568;99.958;2023-02-04T12:08:32;100690.75;;;34.21;47.84
74230;BME280;62589;12.568;99.958;2023-02-04T12:11:26;100677.22;;;34.26;47.67
74230;BME280;62589;12.568;99.958;2023-02-04T12:14:06;100682.78;;;34.23;47.82
74230;BME280;62589;12.568;99.958;2023-02-04T12:16:52;100685.56;;;34.26;48.00
74230;BME280;62589;12.568;99.958;2023-02-04T12:19:21;100680.00;;;34.19;48.43
74230;BME280;62589;12.568;99.958;2023-02-04T12:21:47;100687.56;;;34.19;48.60
74230;BME280;62589;12.568;99.958;2023-02-04T12:24:14;100693.13;;;34.22;48.75
74230;BME280;62589;12.568;99.958;2023-02-04T12:26:40;100693.13;;;34.11;48.86
74230;BME280;62589;12.568;99.958;2023-02-04T12:29:07;100706.66;;;34.17;48.64
74230;BME280;62589;12.568;99.958;2023-02-04T12:31:34;100694.72;;;34.12;48.80
74230;BME280;62589;12.568;99.958;2023-02-04T12:34:01;100697.50;;;34.16;48.57
74230;BME280;62589;12.568;99.958;2023-02-04T12:36:27;100698.31;;;34.13;48.38
74230;BME280;62589;12.568;99.958;2023-02-04T12:38:55;100705.06;;;34.16;48.51
74230;BME280;62589;12.568;99.958;2023-02-04T12:41:24;100709.47;;;34.17;48.59
74230;BME280;62589;12.568;99.958;2023-02-04T12:43:51;100706.66;;;34.17;48.09
74230;BME280;62589;12.568;99.958;2023-02-04T12:46:19;100707.06;;;34.19;48.19
74230;BME280;62589;12.568;99.958;2023-02-04T12:48:46;100719.41;;;34.21;48.99
74230;BME280;62589;12.568;99.958;2023-02-04T12:51:12;100718.63;;;34.21;48.79